sensor_id;sensor_type;location;lat;lon;timestamp;pressure;altitude;pressure_sealevel;temperature;humidity
74958;BME280;63741;42.624;26.276;2023-09-30T00:00:11;99881.28;;;22.06;34.84
74958;BME280;63741;42.624;26.276;2023-09-30T00:02:38;99871.44;;;22.13;34.20
74958;BME280;63741;42.624;26.276;2023-09-30T00:05:06;99871.44;;;22.13;33.97
74958;BME280;63741;42.624;26.276;2023-09-30T00:07:33;99874.66;;;22.08;33.91
74958;BME280;63741;42.624;26.276;2023-09-30T00:10:01;99872.63;;;22.10;34.43
74958;BME280;63741;42.624;26.276;2023-09-30T00:12:28;99874.78;;;22.15;34.52
74958;BME280;63741;42.624;26.276;2023-09-30T00:14:55;99874.81;;;22.36;34.56
74958;BME280;63741;42.624;26.276;2023-09-30T00:17:22;99871.44;;;22.13;34.32
74958;BME280;63741;42.624;26.276;2023-09-30T00:19:49;99869.41;;;22.15;35.94
74958;BME280;63741;42.624;26.276;2023-09-30T00:22:16;99866.78;;;22.22;35.75
74958;BME280;63741;42.624;26.276;2023-09-30T00:24:43;99871.69;;;22.33;37.79
74958;BME280;63741;42.624;26.276;2023-09-30T00:27:10;99870.09;;;22.09;37.54
74958;BME280;63741;42.624;26.276;2023-09-30T00:29:37;99868.00;;;21.75;36.20
74958;BME280;63741;42.624;26.276;2023-09-30T00:32:04;99867.03;;;21.82;38.27
74958;BME280;63741;42.624;26.276;2023-09-30T00:34:34;99867.06;;;21.53;37.62
74958;BME280;63741;42.624;26.276;2023-09-30T00:37:02;99868.06;;;21.52;38.05
74958;BME280;63741;42.624;26.276;2023-09-30T00:39:29;99865.00;;;21.55;39.07
74958;BME280;63741;42.624;26.276;2023-09-30T00:41:57;99862.66;;;21.52;38.89
74958;BME280;63741;42.624;26.276;2023-09-30T00:44:28;99862.31;;;21.55;38.18
74958;BME280;63741;42.624;26.276;2023-09-30T00:46:55;99863.06;;;21.49;39.80
74958;BME280;63741;42.624;26.276;2023-09-30T00:49:24;99859.97;;;21.37;39.62
74958;BME280;63741;42.624;26.276;2023-09-30T00:51:52;99857.47;;;21.35;38.74
74958;BME280;63741;42.624;26.276;2023-09-30T00:54:22;99857.16;;;21.30;37.67
74958;BME280;63741;42.624;26.276;2023-09-30T00:56:52;99855.78;;;21.11;38.85
74958;BME280;63741;42.624;26.276;2023-09-30T00:59:23;99855.09;;;21.17;38.55
74958;BME280;63741;42.624;26.276;2023-09-30T01:01:52;99849.66;;;21.03;38.63
74958;BME280;63741;42.624;26.276;2023-09-30T01:04:21;99859.16;;;21.13;38.84
74958;BME280;63741;42.624;26.276;2023-09-30T01:06:48;99852.81;;;21.06;39.36
74958;BME280;63741;42.624;26.276;2023-09-30T01:09:15;99858.38;;;21.05;40.19
74958;BME280;63741;42.624;26.276;2023-09-30T01:11:42;99856.72;;;21.04;38.95
74958;BME280;63741;42.624;26.276;2023-09-30T01:16:51;99857.47;;;21.12;39.97
74958;BME280;63741;42.624;26.276;2023-09-30T01:19:18;99863.31;;;21.16;38.89
74958;BME280;63741;42.624;26.276;2023-09-30T01:21:47;99866.19;;;21.14;39.44
74958;BME280;63741;42.624;26.276;2023-09-30T01:24:15;99860.06;;;21.20;39.40
74958;BME280;63741;42.624;26.276;2023-09-30T01:26:42;99860.94;;;21.21;39.03
74958;BME280;63741;42.624;26.276;2023-09-30T01:29:09;99856.56;;;21.20;39.33
74958;BME280;63741;42.624;26.276;2023-09-30T01:31:39;99854.78;;;21.12;39.36
74958;BME280;63741;42.624;26.276;2023-09-30T01:34:06;99855.16;;;21.09;40.77
74958;BME280;63741;42.624;26.276;2023-09-30T01:36:34;99852.94;;;21.13;39.01
74958;BME280;63741;42.624;26.276;2023-09-30T01:39:01;99841.81;;;20.93;38.50
74958;BME280;63741;42.624;26.276;2023-09-30T01:41:29;99848.59;;;20.89;40.02
74958;BME280;63741;42.624;26.276;2023-09-30T01:43:56;99845.78;;;20.82;37.69
74958;BME280;63741;42.624;26.276;2023-09-30T01:46:23;99849.28;;;21.06;37.59
74958;BME280;63741;42.624;26.276;2023-09-30T01:48:50;99853.41;;;21.16;38.87
74958;BME280;63741;42.624;26.276;2023-09-30T01:51:18;99860.19;;;21.27;39.42
74958;BME280;63741;42.624;26.276;2023-09-30T01:53:45;99851.66;;;21.24;39.92
74958;BME280;63741;42.624;26.276;2023-09-30T01:56:12;99852.69;;;21.23;38.86
74958;BME280;63741;42.624;26.276;2023-09-30T01:58:39;99859.50;;;21.10;38.19
74958;BME280;63741;42.624;26.276;2023-09-30T02:01:06;99848.97;;;21.24;37.43
74958;BME280;63741;42.624;26.276;2023-09-30T02:03:33;99858.50;;;21.34;38.91
74958;BME280;63741;42.624;26.276;2023-09-30T02:06:00;99856.25;;;21.15;39.58
74958;BME280;63741;42.624;26.276;2023-09-30T02:08:27;99854.31;;;21.09;38.96
74958;BME280;63741;42.624;26.276;2023-09-30T02:10:54;99854.94;;;20.96;39.75
74958;BME280;63741;42.624;26.276;2023-09-30T02:13:21;99852.88;;;20.98;39.04
74958;BME280;63741;42.624;26.276;2023-09-30T02:15:48;99849.09;;;21.07;39.24
74958;BME280;63741;42.624;26.276;2023-09-30T02:18:15;99853.66;;;20.84;39.09
74958;BME280;63741;42.624;26.276;2023-09-30T02:20:42;99858.03;;;20.85;40.36
74958;BME280;63741;42.624;26.276;2023-09-30T02:23:10;99848.66;;;20.58;40.74
74958;BME280;63741;42.624;26.276;2023-09-30T02:25:40;99845.56;;;20.69;40.63
74958;BME280;63741;42.624;26.276;2023-09-30T02:28:06;99841.69;;;20.72;40.55
74958;BME280;63741;42.624;26.276;2023-09-30T02:30:33;99845.56;;;20.69;40.28
74958;BME280;63741;42.624;26.276;2023-09-30T02:33:02;99843.06;;;20.36;40.97
74958;BME280;63741;42.624;26.276;2023-09-30T02:35:31;99839.63;;;20.51;40.17
74958;BME280;63741;42.624;26.276;2023-09-30T02:37:59;99832.41;;;20.51;39.75
74958;BME280;63741;42.624;26.276;2023-09-30T02:40:27;99832.06;;;20.46;39.88
74958;BME280;63741;42.624;26.276;2023-09-30T02:42:54;99835.88;;;20.60;39.95
74958;BME280;63741;42.624;26.276;2023-09-30T02:45:23;99841.84;;;20.70;40.59
74958;BME280;63741;42.624;26.276;2023-09-30T02:47:50;99836.59;;;20.54;39.06
74958;BME280;63741;42.624;26.276;2023-09-30T02:50:17;99844.03;;;20.66;38.44
74958;BME280;63741;42.624;26.276;2023-09-30T02:52:44;99841.34;;;20.66;40.81
74958;BME280;63741;42.624;26.276;2023-09-30T02:55:12;99837.91;;;20.81;39.56
74958;BME280;63741;42.624;26.276;2023-09-30T02:57:39;99845.09;;;20.26;40.42
74958;BME280;63741;42.624;26.276;2023-09-30T03:00:08;99844.19;;;20.42;38.99
74958;BME280;63741;42.624;26.276;2023-09-30T03:03:02;99847.50;;;20.52;39.76
74958;BME280;63741;42.624;26.276;2023-09-30T03:05:30;99834.59;;;20.48;38.67
74958;BME280;63741;42.624;26.276;2023-09-30T03:08:00;99839.44;;;20.52;39.71
74958;BME280;63741;42.624;26.276;2023-09-30T03:10:28;99838.88;;;20.65;40.80
74958;BME280;63741;42.624;26.276;2023-09-30T03:12:56;99841.34;;;20.66;39.14
74958;BME280;63741;42.624;26.276;2023-09-30T03:15:28;99840.66;;;20.73;39.89
74958;BME280;63741;42.624;26.276;2023-09-30T03:17:58;99842.44;;;20.57;40.69
74958;BME280;63741;42.624;26.276;2023-09-30T03:20:26;99837.72;;;20.59;40.09
74958;BME280;63741;42.624;26.276;2023-09-30T03:22:53;99831.28;;;20.37;40.62
74958;BME280;63741;42.624;26.276;2023-09-30T03:25:20;99841.59;;;20.26;41.05
74958;BME280;63741;42.624;26.276;2023-09-30T03:27:49;99835.31;;;20.10;41.06
74958;BME280;63741;42.624;26.276;2023-09-30T03:30:17;99834.81;;;20.07;42.17
74958;BME280;63741;42.624;26.276;2023-09-30T03:32:46;99840.63;;;20.18;39.46
74958;BME280;63741;42.624;26.276;2023-09-30T03:35:14;99839.13;;;20.16;40.78
74958;BME280;63741;42.624;26.276;2023-09-30T03:37:46;99845.69;;;20.13;39.45
74958;BME280;63741;42.624;26.276;2023-09-30T03:40:14;99841.31;;;20.12;41.81
74958;BME280;63741;42.624;26.276;2023-09-30T03:42:41;99845.38;;;20.08;39.87
74958;BME280;63741;42.624;26.276;2023-09-30T03:45:11;99840.22;;;19.99;41.06
74958;BME280;63741;42.624;26.276;2023-09-30T03:47:41;99835.56;;;19.92;41.51
74958;BME280;63741;42.624;26.276;2023-09-30T03:50:08;99834.72;;;19.92;41.33
74958;BME280;63741;42.624;26.276;2023-09-30T03:52:43;99848.03;;;20.16;43.01
74958;BME280;63741;42.624;26.276;2023-09-30T03:55:15;99847.06;;;20.09;41.50
74958;BME280;63741;42.624;26.276;2023-09-30T03:57:47;99844.63;;;19.91;40.85
74958;BME280;63741;42.624;26.276;2023-09-30T04:00:16;99847.25;;;19.60;43.18
74958;BME280;63741;42.624;26.276;2023-09-30T04:02:48;99836.16;;;19.63;41.20
74958;BME280;63741;42.624;26.276;2023-09-30T04:05:18;99846.13;;;19.86;41.05
74958;BME280;63741;42.624;26.276;2023-09-30T04:07:46;99841.97;;;19.83;42.31
74958;BME280;63741;42.624;26.276;2023-09-30T04:10:13;99846.06;;;20.02;40.47
74958;BME280;63741;42.624;26.276;2023-09-30T04:12:41;99847.22;;;20.08;40.09
74958;BME280;63741;42.624;26.276;2023-09-30T04:15:08;99850.84;;;20.23;39.72
74958;BME280;63741;42.624;26.276;2023-09-30T04:17:38;99848.59;;;20.35;40.24
74958;BME280;63741;42.624;26.276;2023-09-30T04:20:07;99843.97;;;20.20;38.80
74958;BME280;63741;42.624;26.276;2023-09-30T04:22:45;99844.72;;;20.37;38.32
74958;BME280;63741;42.624;26.276;2023-09-30T04:25:16;99851.50;;;20.25;37.73
74958;BME280;63741;42.624;26.276;2023-09-30T04:27:45;99850.75;;;20.39;39.56
74958;BME280;63741;42.624;26.276;2023-09-30T04:30:16;99841.78;;;20.55;39.63
74958;BME280;63741;42.624;26.276;2023-09-30T04:32:44;99841.44;;;20.27;40.26
74958;BME280;63741;42.624;26.276;2023-09-30T04:35:11;99848.56;;;20.04;39.28
74958;BME280;63741;42.624;26.276;2023-09-30T04:37:38;99852.19;;;20.27;39.26
74958;BME280;63741;42.624;26.276;2023-09-30T04:40:07;99851.75;;;20.38;39.34
74958;BME280;63741;42.624;26.276;2023-09-30T04:42:47;99852.88;;;20.52;38.63
74958;BME280;63741;42.624;26.276;2023-09-30T04:45:15;99858.69;;;20.64;38.87
74958;BME280;63741;42.624;26.276;2023-09-30T04:47:53;99852.78;;;20.68;40.09
74958;BME280;63741;42.624;26.276;2023-09-30T04:50:20;99855.78;;;20.74;38.01
74958;BME280;63741;42.624;26.276;2023-09-30T04:52:50;99853.38;;;20.56;39.27
74958;BME280;63741;42.624;26.276;2023-09-30T04:55:18;99853.91;;;20.97;38.82
74958;BME280;63741;42.624;26.276;2023-09-30T04:57:46;99859.13;;;20.99;37.34
74958;BME280;63741;42.624;26.276;2023-09-30T05:00:15;99863.88;;;20.88;37.76
74958;BME280;63741;42.624;26.276;2023-09-30T05:02:47;99862.66;;;20.76;38.76
74958;BME280;63741;42.624;26.276;2023-09-30T05:05:14;99859.03;;;21.07;38.62
74958;BME280;63741;42.624;26.276;2023-09-30T05:07:42;99864.88;;;21.33;38.31
74958;BME280;63741;42.624;26.276;2023-09-30T05:10:10;99865.53;;;21.35;38.68
74958;BME280;63741;42.624;26.276;2023-09-30T05:12:40;99868.16;;;21.73;36.99
74958;BME280;63741;42.624;26.276;2023-09-30T05:15:14;99868.34;;;21.72;38.86
74958;BME280;63741;42.624;26.276;2023-09-30T05:17:43;99869.00;;;21.59;37.83
74958;BME280;63741;42.624;26.276;2023-09-30T05:20:14;99864.44;;;21.59;38.05
74958;BME280;63741;42.624;26.276;2023-09-30T05:22:44;99863.91;;;21.93;37.31
74958;BME280;63741;42.624;26.276;2023-09-30T05:25:13;99860.94;;;21.88;37.13
74958;BME280;63741;42.624;26.276;2023-09-30T05:27:44;99867.72;;;21.84;38.40
74958;BME280;63741;42.624;26.276;2023-09-30T05:30:12;99866.41;;;21.80;37.88
74958;BME280;63741;42.624;26.276;2023-09-30T05:32:42;99882.09;;;22.06;37.32
74958;BME280;63741;42.624;26.276;2023-09-30T05:35:09;99873.28;;;22.12;37.51
74958;BME280;63741;42.624;26.276;2023-09-30T05:37:41;99876.00;;;22.49;37.04
74958;BME280;63741;42.624;26.276;2023-09-30T05:40:09;99877.47;;;22.15;37.13
74958;BME280;63741;42.624;26.276;2023-09-30T05:42:57;99876.34;;;22.24;37.52
74958;BME280;63741;42.624;26.276;2023-09-30T05:45:31;99875.69;;;22.22;37.41
74958;BME280;63741;42.624;26.276;2023-09-30T05:48:04;99872.13;;;22.36;37.71
74958;BME280;63741;42.624;26.276;2023-09-30T05:50:34;99872.38;;;22.78;37.09
74958;BME280;63741;42.624;26.276;2023-09-30T05:53:03;99867.56;;;22.94;35.23
74958;BME280;63741;42.624;26.276;2023-09-30T05:55:31;99865.66;;;23.10;35.13
74958;BME280;63741;42.624;26.276;2023-09-30T05:57:59;99870.50;;;23.21;35.39
74958;BME280;63741;42.624;26.276;2023-09-30T06:00:28;99871.28;;;23.15;35.90
74958;BME280;63741;42.624;26.276;2023-09-30T06:02:57;99876.69;;;23.15;36.94
74958;BME280;63741;42.624;26.276;2023-09-30T06:05:25;99877.06;;;23.12;35.14
74958;BME280;63741;42.624;26.276;2023-09-30T06:07:53;99870.22;;;23.09;35.42
74958;BME280;63741;42.624;26.276;2023-09-30T06:10:23;99879.38;;;23.15;36.33
74958;BME280;63741;42.624;26.276;2023-09-30T06:12:53;99878.72;;;23.34;35.89
74958;BME280;63741;42.624;26.276;2023-09-30T06:15:24;99877.91;;;23.12;35.55
74958;BME280;63741;42.624;26.276;2023-09-30T06:17:56;99885.81;;;23.14;36.53
74958;BME280;63741;42.624;26.276;2023-09-30T06:20:25;99880.22;;;23.15;36.55
74958;BME280;63741;42.624;26.276;2023-09-30T06:22:54;99875.38;;;23.04;35.18
74958;BME280;63741;42.624;26.276;2023-09-30T06:25:22;99872.78;;;23.17;35.67
74958;BME280;63741;42.624;26.276;2023-09-30T06:27:51;99873.63;;;23.46;34.69
74958;BME280;63741;42.624;26.276;2023-09-30T06:30:18;99876.16;;;23.82;34.92
74958;BME280;63741;42.624;26.276;2023-09-30T06:32:48;99880.06;;;24.14;35.16
74958;BME280;63741;42.624;26.276;2023-09-30T06:35:16;99883.31;;;23.96;34.19
74958;BME280;63741;42.624;26.276;2023-09-30T06:37:45;99882.72;;;24.01;35.08
74958;BME280;63741;42.624;26.276;2023-09-30T06:40:12;99883.28;;;23.90;34.38
74958;BME280;63741;42.624;26.276;2023-09-30T06:42:40;99883.16;;;23.70;32.82
74958;BME280;63741;42.624;26.276;2023-09-30T06:45:07;99887.00;;;23.61;33.09
74958;BME280;63741;42.624;26.276;2023-09-30T06:47:37;99885.25;;;23.75;33.98
74958;BME280;63741;42.624;26.276;2023-09-30T06:50:09;99887.84;;;23.61;34.39
74958;BME280;63741;42.624;26.276;2023-09-30T06:52:40;99884.72;;;23.58;33.25
74958;BME280;63741;42.624;26.276;2023-09-30T06:55:08;99883.91;;;23.64;34.20
74958;BME280;63741;42.624;26.276;2023-09-30T06:57:37;99881.78;;;23.81;32.84
74958;BME280;63741;42.624;26.276;2023-09-30T07:00:08;99888.78;;;23.75;32.80
74958;BME280;63741;42.624;26.276;2023-09-30T07:02:36;99876.69;;;24.06;33.73
74958;BME280;63741;42.624;26.276;2023-09-30T07:05:11;99883.59;;;24.63;32.72
74958;BME280;63741;42.624;26.276;2023-09-30T07:07:38;99885.38;;;25.10;31.98
74958;BME280;63741;42.624;26.276;2023-09-30T07:10:07;99890.81;;;25.37;31.88
74958;BME280;63741;42.624;26.276;2023-09-30T07:12:34;99900.78;;;25.69;31.49
74958;BME280;63741;42.624;26.276;2023-09-30T07:15:06;99897.47;;;25.81;32.34
74958;BME280;63741;42.624;26.276;2023-09-30T07:17:34;99892.00;;;25.87;30.64
74958;BME280;63741;42.624;26.276;2023-09-30T07:20:03;99902.38;;;26.10;31.42
74958;BME280;63741;42.624;26.276;2023-09-30T07:22:32;99902.63;;;25.95;29.71
74958;BME280;63741;42.624;26.276;2023-09-30T07:25:12;99901.41;;;25.65;31.03
74958;BME280;63741;42.624;26.276;2023-09-30T07:27:43;99896.41;;;25.35;32.42
74958;BME280;63741;42.624;26.276;2023-09-30T07:30:10;99902.44;;;25.64;30.95
74958;BME280;63741;42.624;26.276;2023-09-30T07:32:38;99902.00;;;25.93;29.55
74958;BME280;63741;42.624;26.276;2023-09-30T07:35:06;99905.72;;;26.06;28.37
74958;BME280;63741;42.624;26.276;2023-09-30T07:37:33;99906.41;;;26.53;29.59
74958;BME280;63741;42.624;26.276;2023-09-30T07:40:00;99918.44;;;26.63;28.53
74958;BME280;63741;42.624;26.276;2023-09-30T07:42:27;99913.34;;;26.80;28.97
74958;BME280;63741;42.624;26.276;2023-09-30T07:44:54;99912.69;;;26.85;28.82
74958;BME280;63741;42.624;26.276;2023-09-30T07:47:22;99918.38;;;27.08;28.72
74958;BME280;63741;42.624;26.276;2023-09-30T07:49:50;99913.63;;;27.04;27.60
74958;BME280;63741;42.624;26.276;2023-09-30T07:52:16;99920.28;;;27.08;28.70
74958;BME280;63741;42.624;26.276;2023-09-30T07:54:43;99916.69;;;27.14;27.05
74958;BME280;63741;42.624;26.276;2023-09-30T07:57:10;99916.84;;;27.26;29.01
74958;BME280;63741;42.624;26.276;2023-09-30T07:59:37;99917.59;;;27.58;28.78
74958;BME280;63741;42.624;26.276;2023-09-30T08:02:04;99925.75;;;27.58;29.18
74958;BME280;63741;42.624;26.276;2023-09-30T08:04:31;99914.34;;;27.74;28.75
74958;BME280;63741;42.624;26.276;2023-09-30T08:06:58;99922.22;;;27.82;28.13
74958;BME280;63741;42.624;26.276;2023-09-30T08:09:25;99929.41;;;27.95;26.69
74958;BME280;63741;42.624;26.276;2023-09-30T08:11:55;99935.88;;;27.51;26.98
74958;BME280;63741;42.624;26.276;2023-09-30T08:14:23;99928.50;;;27.33;29.08
74958;BME280;63741;42.624;26.276;2023-09-30T08:16:50;99933.84;;;27.08;28.94
74958;BME280;63741;42.624;26.276;2023-09-30T08:19:17;99945.44;;;26.90;27.75
74958;BME280;63741;42.624;26.276;2023-09-30T08:21:44;99943.28;;;26.60;27.46
74958;BME280;63741;42.624;26.276;2023-09-30T08:24:12;99933.91;;;26.56;29.53
74958;BME280;63741;42.624;26.276;2023-09-30T08:26:38;99936.19;;;26.66;28.09
74958;BME280;63741;42.624;26.276;2023-09-30T08:29:05;99938.84;;;26.73;28.83
74958;BME280;63741;42.624;26.276;2023-09-30T08:31:33;99927.75;;;27.44;28.70
74958;BME280;63741;42.624;26.276;2023-09-30T08:34:00;99930.38;;;27.82;27.04
74958;BME280;63741;42.624;26.276;2023-09-30T08:36:30;99924.19;;;28.30;26.99
74958;BME280;63741;42.624;26.276;2023-09-30T08:38:58;99929.59;;;28.37;26.52
74958;BME280;63741;42.624;26.276;2023-09-30T08:41:32;99926.59;;;27.83;25.37
74958;BME280;63741;42.624;26.276;2023-09-30T08:44:01;99923.72;;;27.78;28.56
74958;BME280;63741;42.624;26.276;2023-09-30T08:46:35;99918.50;;;27.52;27.21
74958;BME280;63741;42.624;26.276;2023-09-30T08:49:04;99926.59;;;27.83;29.00
74958;BME280;63741;42.624;26.276;2023-09-30T08:51:32;99924.47;;;27.60;27.63
74958;BME280;63741;42.624;26.276;2023-09-30T08:54:00;99920.44;;;27.44;29.07
74958;BME280;63741;42.624;26.276;2023-09-30T08:56:30;99918.91;;;27.55;28.99
74958;BME280;63741;42.624;26.276;2023-09-30T08:58:58;99925.97;;;27.81;28.09
74958;BME280;63741;42.624;26.276;2023-09-30T09:01:29;99921.75;;;28.04;27.17
74958;BME280;63741;42.624;26.276;2023-09-30T09:03:57;99924.72;;;28.20;26.78
74958;BME280;63741;42.624;26.276;2023-09-30T09:06:25;99919.53;;;28.37;27.31
74958;BME280;63741;42.624;26.276;2023-09-30T09:08:53;99915.50;;;28.03;28.14
74958;BME280;63741;42.624;26.276;2023-09-30T09:11:20;99925.97;;;27.81;27.02
74958;BME280;63741;42.624;26.276;2023-09-30T09:13:49;99930.09;;;27.65;27.44
74958;BME280;63741;42.624;26.276;2023-09-30T09:16:17;99933.34;;;27.49;30.03
74958;BME280;63741;42.624;26.276;2023-09-30T09:18:45;99935.88;;;27.51;28.09
74958;BME280;63741;42.624;26.276;2023-09-30T09:21:21;99931.25;;;27.51;27.25
74958;BME280;63741;42.624;26.276;2023-09-30T09:23:54;99930.78;;;27.54;28.46
74958;BME280;63741;42.624;26.276;2023-09-30T09:26:26;99927.53;;;27.45;29.20
74958;BME280;63741;42.624;26.276;2023-09-30T09:29:01;99928.53;;;27.51;28.38
74958;BME280;63741;42.624;26.276;2023-09-30T09:31:45;99928.47;;;27.58;28.98
74958;BME280;63741;42.624;26.276;2023-09-30T09:34:14;99918.50;;;27.52;28.51
74958;BME280;63741;42.624;26.276;2023-09-30T09:36:42;99913.44;;;27.99;28.58
74958;BME280;63741;42.624;26.276;2023-09-30T09:39:11;99913.78;;;28.45;27.51
74958;BME280;63741;42.624;26.276;2023-09-30T09:41:52;99914.75;;;28.81;27.30
74958;BME280;63741;42.624;26.276;2023-09-30T09:44:20;99919.31;;;28.69;27.42
74958;BME280;63741;42.624;26.276;2023-09-30T09:46:49;99908.34;;;29.06;27.33
74958;BME280;63741;42.624;26.276;2023-09-30T09:49:20;99913.03;;;29.40;26.70
74958;BME280;63741;42.624;26.276;2023-09-30T09:51:48;99912.06;;;28.93;27.04
74958;BME280;63741;42.624;26.276;2023-09-30T09:54:16;99910.41;;;28.62;26.98
74958;BME280;63741;42.624;26.276;2023-09-30T09:56:47;99915.13;;;28.55;27.11
74958;BME280;63741;42.624;26.276;2023-09-30T09:59:16;99904.31;;;28.78;28.73
74958;BME280;63741;42.624;26.276;2023-09-30T10:01:43;99912.53;;;28.60;28.17
74958;BME280;63741;42.624;26.276;2023-09-30T10:04:12;99907.03;;;28.78;27.16
74958;BME280;63741;42.624;26.276;2023-09-30T10:06:44;99897.13;;;29.26;27.15
74958;BME280;63741;42.624;26.276;2023-09-30T10:09:16;99896.53;;;29.24;25.45
74958;BME280;63741;42.624;26.276;2023-09-30T10:11:45;99900.25;;;29.53;25.84
74958;BME280;63741;42.624;26.276;2023-09-30T10:14:32;99894.53;;;29.54;26.70
74958;BME280;63741;42.624;26.276;2023-09-30T10:16:59;99879.00;;;29.19;26.25
74958;BME280;63741;42.624;26.276;2023-09-30T10:19:27;99883.03;;;28.87;27.61
74958;BME280;63741;42.624;26.276;2023-09-30T10:24:48;99870.94;;;28.71;27.11
74958;BME280;63741;42.624;26.276;2023-09-30T10:35:21;99865.75;;;28.81;26.95
74958;BME280;63741;42.624;26.276;2023-09-30T10:40:57;99848.00;;;28.90;27.55
74958;BME280;63741;42.624;26.276;2023-09-30T10:43:44;99844.81;;;28.52;27.68
74958;BME280;63741;42.624;26.276;2023-09-30T10:46:30;99847.06;;;28.85;28.08
74958;BME280;63741;42.624;26.276;2023-09-30T10:49:14;99830.66;;;29.15;27.16
74958;BME280;63741;42.624;26.276;2023-09-30T10:51:45;99847.84;;;29.51;26.79
74958;BME280;63741;42.624;26.276;2023-09-30T10:54:31;99841.81;;;29.72;25.98
74958;BME280;63741;42.624;26.276;2023-09-30T10:57:04;99836.66;;;30.11;26.14
74958;BME280;63741;42.624;26.276;2023-09-30T10:59:31;99830.47;;;30.27;26.32
74958;BME280;63741;42.624;26.276;2023-09-30T11:01:59;99833.38;;;30.37;26.26
74958;BME280;63741;42.624;26.276;2023-09-30T11:04:26;99835.56;;;30.52;25.39
74958;BME280;63741;42.624;26.276;2023-09-30T11:06:57;99834.25;;;30.55;25.81
74958;BME280;63741;42.624;26.276;2023-09-30T11:09:25;99839.88;;;30.77;25.47
74958;BME280;63741;42.624;26.276;2023-09-30T11:11:53;99821.91;;;30.98;22.88
74958;BME280;63741;42.624;26.276;2023-09-30T11:14:29;99822.56;;;31.05;22.32
74958;BME280;63741;42.624;26.276;2023-09-30T11:17:01;99825.31;;;31.05;22.30
74958;BME280;63741;42.624;26.276;2023-09-30T11:19:45;99816.94;;;30.94;22.13
74958;BME280;63741;42.624;26.276;2023-09-30T11:22:13;99816.28;;;31.21;24.38
74958;BME280;63741;42.624;26.276;2023-09-30T11:24:42;99815.13;;;31.00;25.03
74958;BME280;63741;42.624;26.276;2023-09-30T11:27:09;99820.28;;;31.30;24.27
74958;BME280;63741;42.624;26.276;2023-09-30T11:29:36;99819.09;;;31.09;24.93
74958;BME280;63741;42.624;26.276;2023-09-30T11:32:03;99817.91;;;30.71;24.38
74958;BME280;63741;42.624;26.276;2023-09-30T11:34:34;99811.94;;;30.29;24.66
74958;BME280;63741;42.624;26.276;2023-09-30T11:37:04;99813.63;;;30.07;24.93
74958;BME280;63741;42.624;26.276;2023-09-30T11:39:32;99801.03;;;29.54;25.11
74958;BME280;63741;42.624;26.276;2023-09-30T11:42:00;99811.09;;;29.77;25.67
74958;BME280;63741;42.624;26.276;2023-09-30T11:44:28;99794.28;;;29.80;25.25
74958;BME280;63741;42.624;26.276;2023-09-30T11:47:01;99794.19;;;29.63;25.71
74958;BME280;63741;42.624;26.276;2023-09-30T11:49:38;99805.22;;;29.56;25.04
74958;BME280;63741;42.624;26.276;2023-09-30T11:52:08;99800.81;;;29.55;26.38
74958;BME280;63741;42.624;26.276;2023-09-30T11:54:38;99796.69;;;29.29;25.65
74958;BME280;63741;42.624;26.276;2023-09-30T11:57:08;99803.06;;;29.46;25.22
74958;BME280;63741;42.624;26.276;2023-09-30T11:59:38;99792.31;;;29.16;25.16
74958;BME280;63741;42.624;26.276;2023-09-30T12:02:16;99792.91;;;29.30;24.90
74958;BME280;63741;42.624;26.276;2023-09-30T12:04:45;99790.53;;;29.22;24.47
74958;BME280;63741;42.624;26.276;2023-09-30T12:07:14;99787.53;;;29.59;26.66
74958;BME280;63741;42.624;26.276;2023-09-30T12:09:42;99780.09;;;29.94;25.16
74958;BME280;63741;42.624;26.276;2023-09-30T12:12:09;99777.19;;;30.25;24.08
74958;BME280;63741;42.624;26.276;2023-09-30T12:14:38;99782.69;;;30.41;23.53
74958;BME280;63741;42.624;26.276;2023-09-30T12:17:05;99779.72;;;30.14;22.61
74958;BME280;63741;42.624;26.276;2023-09-30T12:19:42;99773.38;;;30.54;22.60
74958;BME280;63741;42.624;26.276;2023-09-30T12:22:10;99782.03;;;29.82;22.18
74958;BME280;63741;42.624;26.276;2023-09-30T12:24:38;99780.19;;;30.11;23.06
74958;BME280;63741;42.624;26.276;2023-09-30T12:27:06;99774.00;;;30.44;23.15
74958;BME280;63741;42.624;26.276;2023-09-30T12:29:33;99755.31;;;30.36;22.53
74958;BME280;63741;42.624;26.276;2023-09-30T12:32:00;99755.44;;;30.92;22.52
74958;BME280;63741;42.624;26.276;2023-09-30T12:34:28;99749.28;;;30.68;22.11
74958;BME280;63741;42.624;26.276;2023-09-30T12:36:55;99743.22;;;30.32;23.84
74958;BME280;63741;42.624;26.276;2023-09-30T12:39:26;99737.75;;;30.32;21.76
74958;BME280;63741;42.624;26.276;2023-09-30T12:41:57;99747.31;;;30.18;21.96
74958;BME280;63741;42.624;26.276;2023-09-30T12:44:24;99739.00;;;30.58;22.23
74958;BME280;63741;42.624;26.276;2023-09-30T12:46:51;99739.56;;;30.72;22.84
74958;BME280;63741;42.624;26.276;2023-09-30T12:49:18;99727.44;;;30.85;22.78
74958;BME280;63741;42.624;26.276;2023-09-30T12:51:45;99734.72;;;30.96;22.53
74958;BME280;63741;42.624;26.276;2023-09-30T12:54:13;99721.75;;;31.03;21.89
74958;BME280;63741;42.624;26.276;2023-09-30T12:56:41;99727.81;;;31.27;22.51
74958;BME280;63741;42.624;26.276;2023-09-30T12:59:08;99717.78;;;31.33;22.04
74958;BME280;63741;42.624;26.276;2023-09-30T13:01:38;99732.56;;;30.98;22.00
74958;BME280;63741;42.624;26.276;2023-09-30T13:04:08;99730.34;;;30.95;22.59
74958;BME280;63741;42.624;26.276;2023-09-30T13:06:37;99718.31;;;30.62;21.78
74958;BME280;63741;42.624;26.276;2023-09-30T13:09:04;99713.72;;;30.63;22.56
74958;BME280;63741;42.624;26.276;2023-09-30T13:11:31;99700.59;;;30.77;22.82
74958;BME280;63741;42.624;26.276;2023-09-30T13:14:02;99704.84;;;30.56;20.96
74958;BME280;63741;42.624;26.276;2023-09-30T13:16:30;99705.94;;;30.71;21.34